Hlavní strana
METAR-TAF:

METAR-TAF

Letiště :

Funchal, Madeira, Portugalsko

Letiště Madeira

zeměpisná šířka: 32-41-52N, zeměpisná délka: 016-46-28W, výška: 59 m

Aktuální stav počasí

Zpráva byla vytvořena před 20 minutami, v 09:00 UTC
Severní vítr 9 kt
Teplota 15°C
Vlhkost vzduchu 72%
Tlak 1029 hPa
Viditelnost 10 km a více
Skoro jasno ve výšce 1600 ft

METAR: LPMA 240900Z 01009KT 9999 FEW016 15/10 Q1029

Čas: 09:20 (09:20 UTC)

Předpověď počasí

Zpráva byla vytvořena před 4 hodinami a 20 minutami, v 05:00 UTC
Předpověď platná od 24 v 06 UTC do 25 v 06 UTC
Severní vítr 12 kt
Viditelnost 10 km a více
Polojasno ve výšce 1600 ft
Oblačno až skoro zataženo ve výšce 3000 ft
Dočasný
od 24 v 06 UTC do 24 v 10 UTC
Oblačno až skoro zataženo ve výšce 1500 ft
Změna
od 24 v 10 UTC do 24 v 12 UTC
Polojasno ve výšce 1500 ft

TAF: LPMA 240500Z 2406/2506 01012KT 9999 SCT016 BKN030 TEMPO 2406/2410 BKN015 BECMG 2410/2412 SCT015

Stav a předpovědi počasí z více než 4 000 letišť (zprávy METAR a TAF).

Červené a žluté tečky na mapě představují dostupné meteorologické stanice.

Když kurzor umístíte na tečku, zobrazí se název stanice.

Pak kliknutím zobrazíte stav a předpověď počasí.

Chcete-li změnit mapu, kliknutím na zelené tlačítko se znaménkem +mapu přiblížíte, kliknutím na zelené tlačítko se znaménkem – mapu oddálíte a kliknutím na zelené šipky přejdete na sousední mapy.


METAR-TAF: